Latest Coastal Weather Observations for Wynyard

IDT60701

Issued at 4:32 am EST Wednesday 29 June 2016 (issued every 10 minutes, with the page automatically refreshed every 10 minutes)

About coastal observations | Map of coastal stations | Coastal observations for TAS | Marine services | Other Formats
Station Details ID: 091107 Name: WYNYARD AIRPORT Lat: -41.00 Lon: 145.73 Height: 12.0 m
Data from the previous 72 hours. | See also: Recent months at Wynyard
Date/Time
EST
Temp
°C
Wind Pressure Rain since
9am
mm
Weather Cloud Vis
km
Sea
Height
m
Swell
Dir  Spd
kts
Gust
kts
hPa Trend Height
m
Period
s
Dir
29/04:30am 6.9 W 5 6 1019.9 - 0.6 - Partly cloudy 10 - - - -
29/04:00am 7.8 WNW 7 9 1020.1 - 0.6 - - 10 - - - -
29/03:30am 6.2 WNW 8 9 1020.2 - 0.6 - Partly cloudy 8 - - - -
29/03:00am 6.8 WNW 6 7 1020.3 - 0.6 - Mostly clear 2 - - - -
29/02:54am 7.0 WNW 5 6 1020.3 - 0.6 - Partly cloudy 5 - - - -
29/02:30am 8.6 W 5 5 1020.4 - 0.6 - Partly cloudy 9 - - - -
29/02:00am 7.8 WSW 6 8 1020.4 - 0.6 - Partly cloudy 10 - - - -
29/01:44am 8.1 WSW 5 5 1020.2 - 0.6 - Partly cloudy 10 - - - -
29/01:30am 8.5 WSW 6 7 1020.3 - 0.6 - Partly cloudy 5 - - - -
29/01:28am 8.4 WSW 6 7 1020.3 - 0.2 - Partly cloudy 5 - - - -
29/01:24am 8.2 WSW 6 7 1020.4 - 0.2 - Partly cloudy 7 - - - -
29/01:00am 6.4 WNW 2 4 1020.3 - 0.2 - Partly cloudy 5 - - - -
29/12:57am 6.7 WNW 1 4 1020.3 - 0.2 - Partly cloudy 5 - - - -
29/12:30am 8.0 WNW 4 5 1020.3 - 0.2 - Partly cloudy 10 - - - -
29/12:00am 8.2 W 6 7 1020.5 - 0.2 - - 10 - - - -
 
Date/Time
EST
Temp
°C
Wind Pressure Rain since
9am
mm
Weather Cloud Vis
km
Sea
Height
m
Swell
Dir  Spd
kts
Gust
kts
hPa Trend Height
m
Period
s
Dir
28/11:48pm 8.9 W 5 6 1020.5 - 0.2 - - 9 - - - -
28/11:30pm 8.7 WNW 4 5 1020.3 - 0.2 - - 1 - - - -
28/11:12pm 8.6 NW 4 5 1020.3 - 0.2 - - 5 - - - -
28/11:00pm 9.3 WNW 5 7 1020.3 - 0.2 - - 9 - - - -
28/10:30pm 9.4 WNW 6 7 1020.2 - 0.2 - Partly cloudy 9 - - - -
28/10:00pm 10.5 NW 7 9 1020.2 - 0.2 - Partly cloudy 9 - - - -
28/09:30pm 10.5 WNW 7 7 1020.3 - 0.2 - Partly cloudy 10 - - - -
28/09:00pm 10.4 WNW 7 8 1020.1 - 0.0 - Cloudy 9 - - - -
28/08:30pm 10.6 NW 6 8 1020.0 - 0.0 - Partly cloudy 10 - - - -
28/08:00pm 10.6 NW 7 8 1019.8 - 0.0 - Partly cloudy 10 - - - -
28/07:30pm 10.8 NW 7 9 1019.7 - 0.0 - - 10 - - - -
28/07:00pm 11.1 NW 8 10 1019.5 - 0.0 - Partly cloudy 10 - - - -
28/06:30pm 11.3 NW 7 9 1019.3 - 0.0 - Partly cloudy 10 - - - -
28/06:00pm 11.6 NW 7 10 1019.0 - 0.0 - Partly cloudy 10 - - - -
28/05:30pm 12.1 WNW 10 13 1018.8 - 0.0 - Partly cloudy 10 - - - -
28/05:00pm 11.9 WNW 11 15 1018.4 - 0.0 - Partly cloudy 10 - - - -
28/04:30pm 12.1 WNW 10 12 1018.2 - 0.0 - Partly cloudy 10 - - - -
28/04:00pm 13.1 W 7 10 1018.1 - 0.0 - Partly cloudy 10 - - - -
28/03:30pm 13.6 W 13 18 1017.9 - 0.0 - Partly cloudy 10 - - - -
28/03:00pm 13.0 WNW 13 16 1017.7 - 0.0 - Cloudy 8 - - - -
28/02:30pm 13.8 WNW 14 19 1017.3 - 0.0 - Partly cloudy 10 - - - -
28/02:00pm 14.4 WNW 13 16 1017.2 - 0.0 - Partly cloudy 10 - - - -
28/01:30pm 13.9 W 12 17 1017.5 - 0.0 - Partly cloudy 10 - - - -
28/01:00pm 14.3 W 13 18 1017.7 - 0.0 - Partly cloudy 10 - - - -
28/12:30pm 14.0 WNW 13 17 1017.7 - 0.0 - Partly cloudy 10 - - - -
28/12:00pm 13.9 WNW 14 18 1017.7 - 0.0 - Partly cloudy 10 - - - -
28/11:30am 14.5 WNW 13 17 1017.9 - 0.0 - Partly cloudy 10 - - - -
28/11:00am 13.5 WNW 10 15 1018.1 - 0.0 - Partly cloudy 10 - - - -
28/10:57am 13.4 WNW 10 15 1018.2 - 0.0 - Partly cloudy 10 - - - -
28/10:34am 12.6 WNW 8 10 1018.2 - 0.0 - Partly cloudy 10 - - - -
28/10:30am 12.7 WNW 9 11 1018.2 - 0.0 - Cloudy 10 - - - -
28/10:00am 12.3 WNW 9 12 1017.9 - 0.0 - Cloudy 10 - - - -
28/09:30am 11.5 WNW 7 9 1017.8 - 0.0 - Partly cloudy 10 - - - -
28/09:00am 9.2 W 7 8 1017.5 - 0.2 - Mostly clear 10 - - - -
28/08:30am 7.8 W 7 8 1017.3 - 0.2 - Partly cloudy 10 - - - -
28/08:00am 5.6 WNW 7 8 1017.0 - 0.2 - Partly cloudy 10 - - - -
28/07:30am 6.1 W 7 8 1016.8 - 0.2 - Partly cloudy 10 - - - -
28/07:00am 5.8 W 7 8 1016.5 - 0.2 - Partly cloudy 10 - - - -
28/06:30am 4.8 W 6 7 1016.3 - 0.2 - Partly cloudy 10 - - - -
28/06:00am 4.1 W 6 7 1015.9 - 0.2 - Mostly cloudy 10 - - - -
28/05:30am 4.0 W 7 8 1015.7 - 0.2 - Partly cloudy 10 - - - -
28/05:00am 3.8 W 7 8 1015.5 - 0.2 - Partly cloudy 10 - - - -
28/04:30am 4.6 W 5 6 1015.6 - 0.2 - Partly cloudy 10 - - - -
28/04:00am 4.3 W 5 6 1015.7 - 0.2 - Partly cloudy 10 - - - -
28/03:30am 3.0 W 6 7 1015.6 - 0.2 - Partly cloudy 8 - - - -
28/03:00am 3.0 W 5 6 1015.5 - 0.2 - Mostly clear 10 - - - -
28/02:30am 3.9 W 5 6 1015.7 - 0.2 - Partly cloudy 8 - - - -
28/02:00am 2.8 W 5 6 1015.6 - 0.2 - Partly cloudy 10 - - - -
28/01:30am 3.0 WSW 4 6 1015.5 - 0.2 - - 7 - - - -
28/01:27am 3.2 SW 4 5 1015.5 - 0.2 - - 7 - - - -
28/01:06am 3.3 WNW 5 7 1015.6 - 0.2 - Partly cloudy 5 - - - -
28/01:00am 3.9 WNW 5 7 1015.7 - 0.2 - Partly cloudy 6 - - - -
28/12:30am 3.5 WNW 4 5 1015.8 - 0.2 - Partly cloudy 8 - - - -
28/12:19am 3.1 WSW 4 5 1015.8 - 0.2 - Partly cloudy 8 - - - -
28/12:00am 2.6 W 5 5 1016.0 - 0.2 Rain Partly cloudy 4 - - - -
 
Date/Time
EST
Temp
°C
Wind Pressure Rain since
9am
mm
Weather Cloud Vis
km
Sea
Height
m
Swell
Dir  Spd
kts
Gust
kts
hPa Trend Height
m
Period
s
Dir
27/11:30pm 3.4 CALM 0 4 1015.9 - 0.0 - Partly cloudy 6 - - - -
27/11:17pm 3.5 CALM 0 3 1015.8 - 0.0 - Partly cloudy 4 - - - -
27/11:00pm 3.9 W 3 4 1015.9 - 0.0 - Partly cloudy 8 - - - -
27/10:35pm 3.5 WSW 4 6 1016.0 - 0.0 - Partly cloudy 6 - - - -
27/10:30pm 3.4 WSW 4 6 1016.1 - 0.0 - Partly cloudy 7 - - - -
27/10:16pm 3.3 W 3 4 1016.0 - 0.0 - Partly cloudy 5 - - - -
27/10:05pm 3.4 NW 3 3 1015.8 - 0.0 - Partly cloudy 7 - - - -
27/10:00pm 2.7 NW 3 5 1015.8 - 0.0 - Partly cloudy 9 - - - -
27/09:45pm 2.7 WSW 4 5 1015.9 - 0.0 - Partly cloudy 5 - - - -
27/09:30pm 3.1 W 4 5 1015.9 - 0.0 - - 10 - - - -
27/09:00pm 4.2 WNW 5 6 1015.8 - 0.0 - Cloudy 10 - - - -
27/08:52pm 3.9 W 5 8 1015.8 - 0.0 - Partly cloudy 9 - - - -
27/08:33pm 3.0 WSW 4 5 1015.7 - 0.0 - Partly cloudy 5 - - - -
27/08:30pm 2.8 WSW 4 5 1015.7 - 0.0 - - 9 - - - -
27/08:00pm 3.7 SW 4 5 1015.5 - 0.0 - - 9 - - - -
27/07:30pm 4.1 W 3 5 1015.6 - 0.0 - - 10 - - - -
27/07:00pm 4.5 SW 4 5 1015.3 - 0.0 - - 10 - - - -
27/06:30pm 4.9 SW 4 5 1014.9 - 0.0 - - 10 - - - -
27/06:00pm 5.9 WNW 1 3 1014.6 - 0.0 - - 10 - - - -
27/05:30pm 7.5 W 5 6 1014.2 - 0.0 - - 10 - - - -
27/05:00pm 8.9 W 7 9 1013.9 - 0.0 - Partly cloudy 10 - - - -
27/04:30pm 10.1 W 7 8 1013.7 - 0.0 - - 10 - - - -
27/04:00pm 10.9 W 7 11 1013.5 - 0.0 - - 10 - - - -
27/03:30pm 10.2 W 9 13 1013.5 - 0.0 - - 10 - - - -
27/03:00pm 11.5 WSW 10 15 1013.4 - 0.0 - Partly cloudy 10 - - - -
27/02:30pm 10.7 WSW 13 22 1013.4 - 0.0 - Partly cloudy 10 - - - -
27/02:00pm 12.2 WSW 8 12 1013.0 - 0.0 - Partly cloudy 10 - - - -
27/01:30pm 11.1 WSW 15 24 1013.2 - 0.0 - Partly cloudy 10 - - - -
27/01:00pm 13.1 W 11 16 1013.0 - 0.0 - - 10 - - - -
27/12:30pm 12.6 WSW 13 16 1013.3 - 0.0 - - 10 - - - -
27/12:00pm 12.5 W 11 14 1013.5 - 0.0 - - 10 - - - -
27/11:30am 12.1 W 9 12 1013.8 - 0.0 - - 10 - - - -
27/11:00am 11.2 W 9 11 1013.8 - 0.0 - - 10 - - - -
27/10:30am 10.3 W 9 11 1014.0 - 0.0 - - 10 - - - -
27/10:00am 9.1 W 9 11 1013.8 - 0.0 - - 10 - - - -
27/09:30am 7.5 W 7 9 1013.6 - 0.0 - - 10 - - - -
27/09:00am 5.4 WSW 4 5 1013.6 - 1.8 - - 10 - - - -
27/08:30am 3.3 W 5 6 1013.3 - 1.8 - - 10 - - - -
27/08:23am 2.8 W 5 6 1013.2 - 1.8 - - 10 - - - -
27/08:00am 2.3 WSW 5 7 1013.0 - 1.8 - - 5 - - - -
27/07:36am 2.5 W 4 5 1012.6 - 1.8 - - 5 - - - -
27/07:30am 2.5 W 4 5 1012.5 - 1.8 - - 7 - - - -
27/07:24am 2.8 W 4 5 1012.4 - 1.8 - - 8 - - - -
27/07:00am 3.2 WSW 5 6 1012.1 - 1.8 - - 10 - - - -
27/06:47am 3.9 WSW 5 6 1011.9 - 1.8 - - 5 - - - -
27/06:30am 3.4 WSW 5 6 1011.6 - 1.8 - Partly cloudy 9 - - - -
27/06:25am 3.3 WSW 6 6 1011.6 - 1.8 - Partly cloudy 10 - - - -
27/06:00am 3.4 WSW 5 5 1011.4 - 1.8 - Partly cloudy 2 - - - -
27/05:30am 3.2 WNW 2 6 1011.1 - 1.8 - - 0.3 - - - -
27/05:00am 4.7 SSW 3 4 1010.8 - 1.8 - - 1 - - - -
27/04:30am 4.7 SSW 1 3 1010.8 - 1.8 - - 5 - - - -
27/04:00am 5.8 SW 3 4 1010.9 - 1.8 - - 0.5 - - - -
27/03:30am 7.6 CALM 0 0 1010.9 - 1.8 - Partly cloudy 5 - - - -
27/03:28am 7.6 CALM 0 0 1011.0 - 1.8 - Partly cloudy 5 - - - -
27/03:00am 8.3 SSW 4 5 1011.2 - 1.8 - Cloudy 10 - - - -
27/02:30am 7.9 WSW 5 7 1011.5 - 1.8 - Partly cloudy 10 - - - -
27/02:00am 8.6 WNW 10 13 1011.4 - 1.8 - Partly cloudy 10 - - - -
27/01:30am 9.1 WNW 6 8 1011.5 - 1.8 - Partly cloudy 10 - - - -
27/01:00am 9.4 W 7 9 1011.5 - 0.8 - Partly cloudy 10 - - - -
27/12:35am 9.9 WNW 8 11 1011.5 - 0.4 - Partly cloudy 10 - - - -
27/12:30am 10.0 WNW 9 15 1011.4 - 0.4 - Partly cloudy 10 - - - -
27/12:16am 10.8 NW 17 29 1011.5 - 0.2 - Partly cloudy 5 - - - -
27/12:13am 11.2 NW 15 25 1011.5 - 0.0 - Partly cloudy 9 - - - -
27/12:00am 11.8 NW 15 23 1011.4 - 0.0 - Cloudy 10 - - - -
 
Date/Time
EST
Temp
°C
Wind Pressure Rain since
9am
mm
Weather Cloud Vis
km
Sea
Height
m
Swell
Dir  Spd
kts
Gust
kts
hPa Trend Height
m
Period
s
Dir
26/11:30pm 11.5 NW 12 17 1011.5 - 0.0 - Partly cloudy 10 - - - -
26/11:00pm 11.8 NW 11 19 1011.7 - 0.0 - Partly cloudy 10 - - - -
26/10:30pm 11.6 NW 11 17 1011.9 - 0.0 - Partly cloudy 10 - - - -
26/10:00pm 10.8 WNW 8 11 1012.2 - 0.0 - Partly cloudy 10 - - - -
26/09:30pm 10.8 WNW 10 15 1012.4 - 0.0 - Partly cloudy 10 - - - -
26/09:00pm 10.3 WNW 6 9 1012.7 - 0.0 - Partly cloudy 10 - - - -
26/08:30pm 10.0 WNW 6 8 1012.9 - 0.0 - Partly cloudy 10 - - - -
26/08:00pm 9.7 WNW 5 6 1013.2 - 0.0 - Partly cloudy 10 - - - -
26/07:30pm 9.8 WNW 6 7 1013.1 - 0.0 - Cloudy 10 - - - -
26/07:00pm 10.3 NW 6 8 1013.1 - 0.0 - Cloudy 10 - - - -
26/06:30pm 10.3 WNW 9 13 1013.2 - 0.0 - Cloudy 10 - - - -
26/06:00pm 10.4 WNW 8 10 1013.2 - 0.0 - Cloudy 10 - - - -
26/05:30pm 10.6 NW 8 14 1013.4 - 0.0 - Cloudy 10 - - - -
26/05:00pm 10.6 NW 9 13 1013.3 - 0.0 - Cloudy 10 - - - -
26/04:30pm 10.9 NW 11 15 1013.5 - 0.0 - Cloudy 10 - - - -
26/04:00pm 11.0 NW 11 15 1013.6 - 0.0 - Cloudy 10 - - - -
26/03:30pm 11.3 NW 13 18 1013.6 - 0.0 - Cloudy 10 - - - -
26/03:00pm 11.5 NW 12 16 1013.6 - 0.0 - Mostly cloudy 10 - - - -
26/02:30pm 12.3 NW 13 19 1013.7 - 0.0 - Partly cloudy 10 - - - -
26/02:00pm 12.6 NW 13 18 1014.0 - 0.0 - Partly cloudy 10 - - - -
26/01:30pm 12.5 NW 16 21 1014.3 - 0.0 - Partly cloudy 10 - - - -
26/01:00pm 12.9 NW 14 19 1014.7 - 0.0 - Partly cloudy 10 - - - -
26/12:30pm 12.2 WNW 11 16 1015.1 - 0.0 - Partly cloudy 10 - - - -
26/12:00pm 13.0 WNW 13 20 1015.5 - 0.0 - Mostly cloudy 10 - - - -
26/11:30am 12.6 W 10 14 1016.2 - 0.0 - Partly cloudy 10 - - - -
26/11:00am 11.7 WNW 5 8 1016.8 - 0.0 - Partly cloudy 10 - - - -
26/10:30am 10.0 WNW 3 5 1017.2 - 0.0 - Partly cloudy 10 - - - -
26/10:00am 7.9 WNW 4 6 1017.3 - 0.0 - Partly cloudy 10 - - - -
26/09:30am 6.1 W 4 5 1017.3 - 0.0 - Partly cloudy 10 - - - -
26/09:00am 3.6 W 5 6 1017.3 - 0.2 - Partly cloudy 10 - - - -
26/08:55am 3.0 W 5 6 1017.3 - 0.2 - Partly cloudy 9 - - - -
26/08:30am 2.9 WNW 5 6 1017.3 - 0.2 - - 4 - - - -
26/08:07am 1.9 WNW 4 5 1017.2 - 0.2 - - 5 - - - -
26/08:00am 2.2 W 4 5 1017.3 - 0.2 - - 10 - - - -
26/07:30am 3.1 WSW 7 7 1017.2 - 0.2 - Partly cloudy 8 - - - -
26/07:00am 2.0 W 6 7 1017.2 - 0.2 - - 10 - - - -
26/06:30am 1.4 W 5 6 1017.2 - 0.2 - - 9 - - - -
26/06:00am 1.9 W 4 5 1017.1 - 0.2 - - 8 - - - -
26/05:30am 1.6 W 5 6 1017.0 - 0.2 - Partly cloudy 10 - - - -
26/05:00am 2.5 WSW 3 4 1017.1 - 0.2 - - 9 - - - -
26/04:50am 1.7 WSW 3 4 1017.2 - 0.2 - - 10 - - - -

Other Formats:

Comma delimited format used in spreadsheet applications
http://www.bom.gov.au/fwo/IDT60701/IDT60701.95957.axf

JavaScript Object Notation format (JSON) in row-major order
http://www.bom.gov.au/fwo/IDT60701/IDT60701.95957.json